Time;durP1;ratioP1;P1;durP2;ratioP2;P2;SDS_P1;SDS_P2;PMS_P1;PMS_P2;Temp;Humidity;BMP_temperature;BMP_pressure;BME280_temperature;BME280_humidity;BME280_pressure;Samples;Min_cycle;Max_cycle;Signal;HPM_P1;HPM_P2
2022/01/09 00:00:09;;;;;;;;;;;6.90;99.90;7.50;98521.00;;;;347911;27;88469;-94
2022/01/09 00:00:29;;;;;;;;;;;6.90;99.90;7.50;98520.00;;;;347602;28;83295;-92
2022/01/09 00:00:42;;;;;;;;;;;6.90;99.90;7.40;98522.00;;;;347195;28;88398;-95
2022/01/09 00:00:54;;;;;;;;;;;6.90;99.90;7.40;98521.00;;;;347681;28;82244;-94
2022/01/09 00:01:06;;;;;;;;;;;6.90;99.90;7.30;98520.00;;;;345411;28;91616;-95
2022/01/09 00:01:20;;;;;;;;;;;6.90;99.90;7.40;98517.00;;;;347313;28;82534;-95
2022/01/09 00:01:32;;;;;;;;;;;6.90;99.90;7.50;98525.00;;;;346882;28;91588;-95
2022/01/09 00:01:44;;;;;;;;;;;6.90;99.90;7.50;98523.00;;;;348709;27;83316;-94
2022/01/09 00:01:56;;;;;;;;;;;6.90;99.90;7.60;98512.00;;;;346888;28;91070;-95
2022/01/09 00:02:08;;;;;;;;;;;6.90;99.90;7.60;98518.00;;;;347721;27;82347;-94
2022/01/09 00:02:20;;;;;;;;;;;6.90;99.90;7.50;98523.00;;;;347153;27;89746;-94
2022/01/09 00:02:31;;;;;;;;;;;6.90;99.90;7.40;98517.00;;;;346034;28;83321;-94
2022/01/09 00:02:43;;;;;;;;;;;6.90;99.90;7.40;98524.00;;;;348089;27;87139;-94
2022/01/09 00:02:56;;;;;;;;;;;6.90;99.90;7.40;98522.00;;;;348919;27;83335;-94
2022/01/09 00:03:08;;;;;;;;;;;6.90;99.90;7.50;98511.00;;;;345369;28;91448;-95
2022/01/09 00:03:20;;;;;;;;;;;6.90;99.90;7.60;98520.00;;;;345910;28;83478;-95
2022/01/09 00:03:32;;;;;;;;;;;6.90;99.90;7.60;98516.00;;;;345470;28;88222;-94
2022/01/09 00:03:44;;;;;;;;;;;6.90;99.90;7.50;98506.00;;;;348635;27;82575;-93
2022/01/09 00:03:56;;;;;;;;;;;6.90;99.90;7.50;98512.00;;;;348559;27;88363;-94
2022/01/09 00:04:08;;;;;;;;;;;6.90;99.90;7.50;98523.00;;;;344440;28;83652;-93
2022/01/09 00:04:20;;;;;;;;;;;6.90;99.90;7.50;98512.00;;;;345511;28;88444;-94
2022/01/09 00:04:32;;;;;;;;;;;6.90;99.90;7.60;98522.00;;;;347013;28;83686;-94
2022/01/09 00:04:44;;;;;;;;;;;7.00;99.90;7.60;98513.00;;;;347239;28;88449;-94
2022/01/09 00:04:56;;;;;;;;;;;6.90;99.90;7.60;98522.00;;;;348778;27;83266;-94
2022/01/09 00:05:08;;;;;;;;;;;7.00;99.90;7.60;98524.00;;;;344929;28;89350;-94
2022/01/09 00:05:21;;;;;;;;;;;7.00;99.90;7.60;98522.00;;;;348566;27;82616;-94
2022/01/09 00:05:34;;;;;;;;;;;6.90;99.90;7.60;98521.00;;;;348491;27;89794;-94
2022/01/09 00:05:46;;;;;;;;;;;7.00;99.90;7.60;98523.00;;;;344585;28;82506;-94
2022/01/09 00:05:57;;;;;;;;;;;6.90;99.90;7.70;98523.00;;;;347345;28;86978;-93
2022/01/09 00:06:09;;;;;;;;;;;7.00;99.90;7.70;98524.00;;;;346207;28;83670;-94
2022/01/09 00:06:21;;;;;;;;;;;7.00;99.90;7.70;98521.00;;;;347277;28;89288;-94
2022/01/09 00:06:33;;;;;;;;;;;7.00;99.90;7.60;98519.00;;;;347463;28;83305;-94
2022/01/09 00:06:45;;;;;;;;;;;7.00;99.90;7.60;98526.00;;;;345903;28;89572;-94
2022/01/09 00:06:57;;;;;;;;;;;7.00;99.90;7.60;98527.00;;;;350339;27;82364;-94
2022/01/09 00:07:09;;;;;;;;;;;7.00;99.90;7.60;98526.00;;;;349859;27;91681;-94
2022/01/09 00:07:20;;;;;;;;;;;7.00;99.90;7.50;98531.00;;;;349207;27;82519;-94
2022/01/09 00:07:32;;;;;;;;;;;7.00;99.90;7.50;98539.00;;;;347113;28;89028;-94
2022/01/09 00:07:44;;;;;;;;;;;7.00;99.90;7.60;98531.00;;;;349096;27;82396;-95
2022/01/09 00:07:56;;;;;;;;;;;7.00;99.90;7.60;98530.00;;;;347335;28;88173;-95
2022/01/09 00:08:08;;;;;;;;;;;7.00;99.90;7.70;98527.00;;;;344574;28;83278;-94
2022/01/09 00:08:20;;;;;;;;;;;7.00;99.90;7.60;98517.00;;;;347145;28;90291;-94
2022/01/09 00:08:32;;;;;;;;;;;7.00;99.90;7.60;98522.00;;;;349068;27;83543;-94
2022/01/09 00:08:46;;;;;;;;;;;7.00;99.90;7.60;98531.00;;;;346633;28;87998;-94
2022/01/09 00:08:58;;;;;;;;;;;7.00;99.90;7.50;98528.00;;;;347701;28;82737;-94
2022/01/09 00:09:11;;;;;;;;;;;7.00;99.90;7.50;98531.00;;;;346509;27;89144;-94
2022/01/09 00:09:23;;;;;;;;;;;7.00;99.90;7.40;98527.00;;;;348756;27;83391;-94
2022/01/09 00:09:37;;;;;;;;;;;7.00;99.90;7.40;98531.00;;;;345753;28;89066;-95
2022/01/09 00:09:49;;;;;;;;;;;7.00;99.90;7.50;98528.00;;;;348920;27;82450;-94
2022/01/09 00:10:01;;;;;;;;;;;7.00;99.90;7.40;98528.00;;;;348773;27;86555;-94
2022/01/09 00:10:13;;;;;;;;;;;7.00;99.90;7.40;98535.00;;;;348855;27;83351;-93
2022/01/09 00:10:30;;;;;;;;;;;6.90;99.90;7.40;98531.00;;;;345886;28;87138;-94
2022/01/09 00:10:47;;;;;;;;;;;6.90;99.90;7.40;98538.00;;;;345866;28;82382;-94
2022/01/09 00:10:58;;;;;;;;;;;6.90;99.90;7.40;98530.00;;;;348880;27;89446;-94
2022/01/09 00:11:13;;;;;;;;;;;6.90;99.90;7.40;98541.00;;;;348657;27;82754;-95
2022/01/09 00:11:26;;;;;;;;;;;6.90;99.90;7.40;98543.00;;;;348752;27;91889;-95
2022/01/09 00:11:38;;;;;;;;;;;6.90;99.90;7.40;98550.00;;;;349389;27;83561;-94
2022/01/09 00:11:49;;;;;;;;;;;6.90;99.90;7.40;98547.00;;;;351709;27;86598;-94
2022/01/09 00:12:01;;;;;;;;;;;6.90;99.90;7.50;98561.00;;;;349288;27;82242;-94
2022/01/09 00:12:13;;;;;;;;;;;6.90;99.90;7.50;98553.00;;;;347799;27;90145;-94
2022/01/09 00:12:25;;;;;;;;;;;6.90;99.90;7.40;98549.00;;;;347609;28;82542;-94
2022/01/09 00:12:37;;;;;;;;;;;6.90;99.90;7.40;98563.00;;;;345981;28;86590;-94
2022/01/09 00:12:49;;;;;;;;;;;6.90;99.90;7.40;98562.00;;;;347339;28;82452;-94
2022/01/09 00:13:01;;;;;;;;;;;6.90;99.90;7.40;98562.00;;;;347296;28;89236;-92
2022/01/09 00:13:13;;;;;;;;;;;6.90;99.90;7.40;98550.00;;;;347352;28;82556;-94
2022/01/09 00:13:25;;;;;;;;;;;6.90;99.90;7.50;98555.00;;;;347401;28;89297;-94
2022/01/09 00:13:37;;;;;;;;;;;6.90;99.90;7.50;98555.00;;;;350381;27;82406;-94
2022/01/09 00:13:48;;;;;;;;;;;6.90;99.90;7.60;98550.00;;;;345936;28;87238;-94
2022/01/09 00:14:00;;;;;;;;;;;6.90;99.90;7.60;98563.00;;;;347671;28;82543;-94
2022/01/09 00:14:12;;;;;;;;;;;6.90;99.90;7.60;98560.00;;;;347827;27;87643;-94
2022/01/09 00:14:24;;;;;;;;;;;7.00;99.90;7.50;98558.00;;;;348819;27;82394;-94
2022/01/09 00:14:35;;;;;;;;;;;7.00;99.90;7.50;98563.00;;;;347042;28;90709;-94
2022/01/09 00:14:47;;;;;;;;;;;6.90;99.90;7.50;98559.00;;;;345117;28;82297;-94
2022/01/09 00:14:59;;;;;;;;;;;6.90;99.90;7.50;98565.00;;;;347361;28;88973;-93
2022/01/09 00:15:11;;;;;;;;;;;6.90;99.90;7.50;98569.00;;;;346158;28;82447;-95
2022/01/09 00:15:23;;;;;;;;;;;7.00;99.90;7.50;98569.00;;;;345393;28;92851;-95
2022/01/09 00:15:35;;;;;;;;;;;6.90;99.90;7.50;98570.00;;;;346529;28;82429;-94
2022/01/09 00:15:47;;;;;;;;;;;7.00;99.90;7.40;98570.00;;;;345800;28;90421;-94
2022/01/09 00:15:59;;;;;;;;;;;7.00;99.90;7.50;98563.00;;;;347337;28;82421;-94
2022/01/09 00:16:11;;;;;;;;;;;7.00;99.90;7.40;98571.00;;;;347346;28;89303;-94
2022/01/09 00:16:23;;;;;;;;;;;7.00;99.90;7.40;98572.00;;;;346136;28;82463;-94
2022/01/09 00:16:35;;;;;;;;;;;6.90;99.90;7.40;98578.00;;;;346080;28;87017;-94
2022/01/09 00:16:48;;;;;;;;;;;7.00;99.90;7.40;98580.00;;;;346394;28;82607;-95
2022/01/09 00:17:00;;;;;;;;;;;7.00;99.90;7.40;98578.00;;;;344869;28;88023;-94
2022/01/09 00:17:12;;;;;;;;;;;6.90;99.90;7.40;98578.00;;;;348361;27;83632;-94
2022/01/09 00:17:24;;;;;;;;;;;7.00;99.90;7.40;98570.00;;;;345765;28;91245;-94
2022/01/09 00:17:36;;;;;;;;;;;6.90;99.90;7.40;98576.00;;;;347948;28;82448;-94
2022/01/09 00:17:47;;;;;;;;;;;6.90;99.90;7.40;98579.00;;;;344387;28;89253;-94
2022/01/09 00:17:59;;;;;;;;;;;7.00;99.90;7.40;98578.00;;;;347446;28;82475;-94
2022/01/09 00:18:12;;;;;;;;;;;7.00;99.90;7.40;98577.00;;;;345747;28;89603;-94
2022/01/09 00:18:24;;;;;;;;;;;6.90;99.90;7.40;98582.00;;;;346034;28;82613;-95
2022/01/09 00:18:35;;;;;;;;;;;6.90;99.90;7.40;98584.00;;;;345625;28;89446;-94
2022/01/09 00:18:48;;;;;;;;;;;6.90;99.90;7.40;98584.00;;;;344666;28;82450;-94
2022/01/09 00:19:00;;;;;;;;;;;6.90;99.90;7.40;98580.00;;;;345882;28;87654;-94
2022/01/09 00:19:12;;;;;;;;;;;6.90;99.90;7.40;98587.00;;;;346168;28;82436;-95
2022/01/09 00:19:24;;;;;;;;;;;7.00;99.90;7.40;98588.00;;;;344500;28;89294;-95
2022/01/09 00:19:36;;;;;;;;;;;6.90;99.90;7.40;98586.00;;;;347805;28;82293;-95
2022/01/09 00:19:48;;;;;;;;;;;6.90;99.90;7.40;98589.00;;;;347060;27;90570;-95
2022/01/09 00:20:00;;;;;;;;;;;6.90;99.90;7.50;98577.00;;;;347680;28;82519;-95
2022/01/09 00:20:12;;;;;;;;;;;6.90;99.90;7.50;98589.00;;;;343682;28;88466;-95
2022/01/09 00:20:24;;;;;;;;;;;6.90;99.90;7.60;98579.00;;;;346314;28;82429;-94
2022/01/09 00:20:36;;;;;;;;;;;6.90;99.90;7.50;98586.00;;;;347266;28;86268;-95
2022/01/09 00:20:48;;;;;;;;;;;7.00;99.90;7.60;98582.00;;;;347899;28;82510;-95
2022/01/09 00:21:05;;;;;;;;;;;7.00;99.90;7.60;98581.00;;;;348499;27;88936;-95
2022/01/09 00:21:17;;;;;;;;;;;6.90;99.90;7.60;98574.00;;;;350312;27;82525;-95
2022/01/09 00:21:29;;;;;;;;;;;7.00;99.90;7.50;98582.00;;;;348288;27;91366;-94
2022/01/09 00:21:41;;;;;;;;;;;7.00;99.90;7.50;98580.00;;;;348841;27;82480;-93
2022/01/09 00:21:53;;;;;;;;;;;7.00;99.90;7.60;98579.00;;;;350143;27;87110;-95
2022/01/09 00:22:05;;;;;;;;;;;7.00;99.90;7.60;98587.00;;;;348793;27;82377;-95
2022/01/09 00:22:20;;;;;;;;;;;7.00;99.90;7.60;98599.00;;;;345836;28;91146;-94
2022/01/09 00:22:38;;;;;;;;;;;7.00;99.90;7.60;98588.00;;;;347501;27;82612;-95
2022/01/09 00:22:52;;;;;;;;;;;7.00;99.90;7.60;98592.00;;;;347197;28;88951;-94
2022/01/09 00:23:03;;;;;;;;;;;7.00;99.90;7.60;98590.00;;;;347648;28;82609;-94
2022/01/09 00:23:15;;;;;;;;;;;7.00;99.90;7.60;98584.00;;;;348441;27;87438;-95
2022/01/09 00:23:27;;;;;;;;;;;7.00;99.90;7.70;98576.00;;;;347350;28;82458;-95
2022/01/09 00:23:39;;;;;;;;;;;7.10;99.90;7.70;98585.00;;;;348302;27;90013;-94
2022/01/09 00:23:51;;;;;;;;;;;7.00;99.90;7.70;98587.00;;;;347490;27;82509;-96
2022/01/09 00:24:03;;;;;;;;;;;7.10;99.90;7.80;98585.00;;;;347092;28;90038;-95
2022/01/09 00:24:15;;;;;;;;;;;7.10;99.90;7.70;98585.00;;;;345626;28;82586;-95
2022/01/09 00:24:27;;;;;;;;;;;7.10;99.90;7.60;98593.00;;;;346936;28;90316;-94
2022/01/09 00:24:39;;;;;;;;;;;7.10;99.90;7.60;98585.00;;;;347495;28;82438;-94
2022/01/09 00:24:51;;;;;;;;;;;7.10;99.90;7.60;98598.00;;;;348581;27;89312;-95
2022/01/09 00:25:04;;;;;;;;;;;7.10;99.90;7.50;98591.00;;;;347327;28;82570;-95
2022/01/09 00:25:18;;;;;;;;;;;7.10;99.90;7.60;98586.00;;;;346920;28;90136;-95
2022/01/09 00:25:30;;;;;;;;;;;7.10;99.90;7.70;98584.00;;;;345854;28;82342;-94
2022/01/09 00:25:41;;;;;;;;;;;7.10;99.90;7.60;98601.00;;;;348622;27;89273;-95
2022/01/09 00:25:53;;;;;;;;;;;7.10;99.90;7.60;98591.00;;;;348742;27;82582;-95
2022/01/09 00:26:06;;;;;;;;;;;7.10;99.90;7.50;98595.00;;;;345793;28;91915;-95
2022/01/09 00:26:18;;;;;;;;;;;7.10;99.90;7.50;98595.00;;;;347868;27;82387;-95
2022/01/09 00:26:30;;;;;;;;;;;7.10;99.90;7.50;98603.00;;;;345682;28;87277;-95
2022/01/09 00:26:42;;;;;;;;;;;7.10;99.90;7.40;98587.00;;;;346133;28;82475;-95
2022/01/09 00:26:54;;;;;;;;;;;7.10;99.90;7.40;98597.00;;;;345890;28;87680;-94
2022/01/09 00:27:05;;;;;;;;;;;7.00;99.90;7.40;98609.00;;;;347568;28;83057;-95
2022/01/09 00:27:17;;;;;;;;;;;7.00;99.90;7.40;98607.00;;;;348402;27;89160;-95
2022/01/09 00:27:29;;;;;;;;;;;7.10;99.90;7.40;98611.00;;;;349009;27;82484;-95
2022/01/09 00:27:41;;;;;;;;;;;7.00;99.90;7.50;98602.00;;;;349751;27;89361;-94
2022/01/09 00:27:53;;;;;;;;;;;7.00;99.90;7.50;98605.00;;;;346042;28;82514;-95
2022/01/09 00:28:05;;;;;;;;;;;7.00;99.90;7.40;98609.00;;;;345812;28;88550;-96
2022/01/09 00:28:17;;;;;;;;;;;7.00;99.90;7.40;98603.00;;;;347587;28;82206;-96
2022/01/09 00:28:29;;;;;;;;;;;7.00;99.90;7.60;98609.00;;;;346120;28;89137;-96
2022/01/09 00:28:41;;;;;;;;;;;7.00;99.90;7.60;98601.00;;;;347565;28;82583;-95
2022/01/09 00:28:52;;;;;;;;;;;7.00;99.90;7.70;98610.00;;;;345824;28;87794;-94
2022/01/09 00:29:07;;;;;;;;;;;7.00;99.90;7.80;98603.00;;;;347595;28;82549;-95
2022/01/09 00:29:19;;;;;;;;;;;7.10;99.90;7.90;98603.00;;;;346582;28;90388;-95
2022/01/09 00:29:30;;;;;;;;;;;7.10;99.90;7.90;98597.00;;;;344852;28;82316;-95
2022/01/09 00:29:42;;;;;;;;;;;7.10;99.90;7.90;98599.00;;;;344862;28;88745;-94
2022/01/09 00:29:54;;;;;;;;;;;7.20;99.90;7.90;98606.00;;;;348810;27;82444;-95
2022/01/09 00:30:08;;;;;;;;;;;7.20;99.90;7.80;98599.00;;;;347344;28;86575;-95
2022/01/09 00:30:21;;;;;;;;;;;7.20;99.90;7.80;98613.00;;;;347331;28;82864;-95
2022/01/09 00:30:33;;;;;;;;;;;7.20;99.90;7.80;98606.00;;;;346909;28;87612;-95
2022/01/09 00:30:45;;;;;;;;;;;7.20;99.90;7.80;98611.00;;;;345970;28;82354;-95
2022/01/09 00:30:57;;;;;;;;;;;7.20;99.90;7.80;98608.00;;;;345799;28;86996;-95
2022/01/09 00:31:09;;;;;;;;;;;7.20;99.90;7.80;98601.00;;;;344668;28;82446;-94
2022/01/09 00:31:21;;;;;;;;;;;7.20;99.90;7.80;98609.00;;;;344283;28;90150;-95
2022/01/09 00:31:32;;;;;;;;;;;7.20;99.90;7.80;98610.00;;;;345942;28;82548;-95
2022/01/09 00:31:44;;;;;;;;;;;7.20;99.90;7.70;98611.00;;;;344191;28;89040;-95
2022/01/09 00:31:56;;;;;;;;;;;7.20;99.90;7.70;98601.00;;;;343516;28;82473;-94
2022/01/09 00:32:08;;;;;;;;;;;7.20;99.90;7.70;98593.00;;;;346949;27;90445;-94
2022/01/09 00:32:20;;;;;;;;;;;7.20;99.90;7.80;98609.00;;;;347471;28;83564;-95
2022/01/09 00:32:32;;;;;;;;;;;7.20;99.90;7.80;98601.00;;;;348262;27;90899;-96
2022/01/09 00:32:44;;;;;;;;;;;7.20;99.90;7.80;98599.00;;;;347604;27;82370;-96
2022/01/09 00:32:56;;;;;;;;;;;7.20;99.90;7.80;98598.00;;;;345705;28;89015;-94
2022/01/09 00:33:08;;;;;;;;;;;7.20;99.90;7.80;98594.00;;;;347506;28;82446;-95
2022/01/09 00:33:21;;;;;;;;;;;7.20;99.90;7.80;98592.00;;;;347278;28;88144;-95
2022/01/09 00:33:33;;;;;;;;;;;7.20;99.90;7.90;98588.00;;;;345926;28;82540;-95
2022/01/09 00:33:45;;;;;;;;;;;7.20;99.90;7.90;98587.00;;;;348123;27;90980;-95
2022/01/09 00:33:56;;;;;;;;;;;7.20;99.90;7.90;98578.00;;;;346279;28;82116;-95
2022/01/09 00:34:08;;;;;;;;;;;7.30;99.90;7.90;98584.00;;;;345766;28;88166;-95
2022/01/09 00:34:20;;;;;;;;;;;7.30;99.90;7.90;98584.00;;;;345886;28;82553;-95
2022/01/09 00:34:32;;;;;;;;;;;7.30;99.90;7.90;98595.00;;;;345557;28;90195;-94
2022/01/09 00:34:44;;;;;;;;;;;7.30;99.90;7.90;98599.00;;;;347394;27;82395;-95
2022/01/09 00:34:56;;;;;;;;;;;7.30;99.90;7.80;98607.00;;;;345697;28;90480;-95
2022/01/09 00:35:09;;;;;;;;;;;7.30;99.90;7.80;98600.00;;;;346128;28;82376;-95
2022/01/09 00:35:21;;;;;;;;;;;7.30;99.90;7.80;98601.00;;;;346839;27;87056;-95
2022/01/09 00:35:34;;;;;;;;;;;7.30;99.90;7.80;98597.00;;;;348770;27;82700;-95
2022/01/09 00:35:45;;;;;;;;;;;7.30;99.90;7.80;98596.00;;;;345455;28;87804;-96
2022/01/09 00:35:58;;;;;;;;;;;7.30;99.90;7.80;98599.00;;;;347605;28;82273;-95
2022/01/09 00:36:14;;;;;;;;;;;7.30;99.90;7.80;98594.00;;;;346988;28;88296;-95
2022/01/09 00:36:26;;;;;;;;;;;7.30;99.90;7.80;98600.00;;;;347391;28;82598;-95
2022/01/09 00:36:38;;;;;;;;;;;7.30;99.90;7.70;98597.00;;;;347081;27;89046;-95
2022/01/09 00:36:50;;;;;;;;;;;7.30;99.90;7.70;98604.00;;;;347661;28;82301;-95
2022/01/09 00:37:02;;;;;;;;;;;7.30;99.90;7.70;98598.00;;;;347246;28;87549;-95
2022/01/09 00:37:14;;;;;;;;;;;7.20;99.90;7.70;98604.00;;;;344793;28;82293;-96
2022/01/09 00:37:26;;;;;;;;;;;7.20;99.90;7.80;98592.00;;;;345640;28;90438;-95
2022/01/09 00:37:38;;;;;;;;;;;7.20;99.90;7.80;98606.00;;;;346064;28;82538;-95
2022/01/09 00:37:50;;;;;;;;;;;7.20;99.90;7.80;98603.00;;;;346334;27;88234;-95
2022/01/09 00:38:01;;;;;;;;;;;7.20;99.90;7.80;98605.00;;;;349959;27;82349;-95
2022/01/09 00:38:13;;;;;;;;;;;7.20;99.90;7.70;98605.00;;;;345357;28;88253;-96
2022/01/09 00:38:25;;;;;;;;;;;7.20;99.90;7.70;98588.00;;;;347580;27;82281;-95
2022/01/09 00:38:37;;;;;;;;;;;7.20;99.90;7.60;98596.00;;;;348061;27;88890;-95
2022/01/09 00:38:49;;;;;;;;;;;7.20;99.90;7.60;98605.00;;;;345991;28;82449;-95
2022/01/09 00:39:01;;;;;;;;;;;7.20;99.90;7.70;98610.00;;;;344157;28;90288;-95
2022/01/09 00:39:13;;;;;;;;;;;7.20;99.90;7.70;98612.00;;;;345352;28;82426;-94
2022/01/09 00:39:24;;;;;;;;;;;7.20;99.90;7.70;98617.00;;;;348227;27;89494;-95
2022/01/09 00:39:36;;;;;;;;;;;7.20;99.90;7.70;98617.00;;;;348912;27;82336;-95
2022/01/09 00:39:48;;;;;;;;;;;7.20;99.90;7.70;98604.00;;;;348199;27;89739;-95
2022/01/09 00:40:00;;;;;;;;;;;7.20;99.90;7.70;98607.00;;;;345972;28;82416;-95
2022/01/09 00:40:12;;;;;;;;;;;7.20;99.90;7.80;98601.00;;;;345691;28;88354;-95
2022/01/09 00:40:24;;;;;;;;;;;7.20;99.90;7.80;98606.00;;;;346032;28;82218;-95
2022/01/09 00:40:36;;;;;;;;;;;7.20;99.90;7.70;98605.00;;;;344379;28;88343;-95
2022/01/09 00:40:48;;;;;;;;;;;7.20;99.90;7.70;98610.00;;;;347524;28;83302;-95
2022/01/09 00:41:00;;;;;;;;;;;7.20;99.90;7.70;98602.00;;;;346689;28;88462;-95
2022/01/09 00:41:11;;;;;;;;;;;7.20;99.90;7.70;98608.00;;;;346651;28;83412;-95
2022/01/09 00:41:23;;;;;;;;;;;7.20;99.90;7.70;98606.00;;;;345459;28;90483;-95
2022/01/09 00:41:35;;;;;;;;;;;7.20;99.90;7.70;98603.00;;;;345383;28;82570;-95
2022/01/09 00:41:47;;;;;;;;;;;7.20;99.90;7.70;98607.00;;;;345330;28;89886;-94
2022/01/09 00:41:59;;;;;;;;;;;7.20;99.90;7.80;98609.00;;;;347398;28;82336;-96
2022/01/09 00:42:11;;;;;;;;;;;7.20;99.90;7.70;98610.00;;;;346932;28;90361;-95
2022/01/09 00:42:22;;;;;;;;;;;7.20;99.90;7.70;98609.00;;;;345884;28;82328;-95
2022/01/09 00:42:34;;;;;;;;;;;7.20;99.90;7.70;98616.00;;;;345801;28;87096;-95
2022/01/09 00:42:46;;;;;;;;;;;7.20;99.90;7.70;98609.00;;;;348941;27;82498;-95
2022/01/09 00:42:58;;;;;;;;;;;7.20;99.90;7.70;98618.00;;;;346918;28;89225;-94
2022/01/09 00:43:10;;;;;;;;;;;7.20;99.90;7.70;98599.00;;;;346133;28;82434;-94
2022/01/09 00:43:21;;;;;;;;;;;7.20;99.90;7.70;98604.00;;;;347131;28;88132;-94
2022/01/09 00:43:33;;;;;;;;;;;7.20;99.90;7.70;98598.00;;;;347093;28;82464;-96
2022/01/09 00:43:45;;;;;;;;;;;7.20;99.90;7.70;98590.00;;;;345565;28;89458;-95
2022/01/09 00:43:57;;;;;;;;;;;7.20;99.90;7.70;98606.00;;;;346011;28;82545;-95
2022/01/09 00:44:09;;;;;;;;;;;7.10;99.90;7.70;98598.00;;;;346233;27;87198;-95
2022/01/09 00:44:22;;;;;;;;;;;7.10;99.90;7.70;98600.00;;;;349504;27;82521;-94
2022/01/09 00:44:33;;;;;;;;;;;7.10;99.90;7.70;98605.00;;;;348197;27;88917;-95
2022/01/09 00:44:45;;;;;;;;;;;7.20;99.90;7.70;98615.00;;;;348623;27;82459;-96
2022/01/09 00:44:57;;;;;;;;;;;7.20;99.90;7.80;98624.00;;;;346775;28;86981;-94
2022/01/09 00:45:09;;;;;;;;;;;7.20;99.90;7.70;98624.00;;;;350254;27;82468;-94
2022/01/09 00:45:22;;;;;;;;;;;7.20;99.90;7.80;98628.00;;;;345631;28;90346;-95
2022/01/09 00:45:33;;;;;;;;;;;7.20;99.90;7.90;98633.00;;;;346278;28;82421;-95
2022/01/09 00:45:46;;;;;;;;;;;7.20;99.90;7.90;98628.00;;;;348342;27;90941;-95
2022/01/09 00:45:57;;;;;;;;;;;7.20;99.90;7.90;98636.00;;;;347684;28;82379;-95
2022/01/09 00:46:09;;;;;;;;;;;7.20;99.90;7.90;98636.00;;;;346943;28;90462;-95
2022/01/09 00:46:22;;;;;;;;;;;7.30;99.90;7.90;98636.00;;;;348996;27;82500;-94
2022/01/09 00:46:34;;;;;;;;;;;7.20;99.90;7.90;98638.00;;;;346785;28;90326;-94
2022/01/09 00:46:45;;;;;;;;;;;7.20;99.90;8.00;98650.00;;;;346199;28;82315;-95
2022/01/09 00:47:00;;;;;;;;;;;7.30;99.90;8.10;98648.00;;;;347134;28;88259;-93
2022/01/09 00:47:11;;;;;;;;;;;7.30;99.90;8.10;98657.00;;;;345256;28;82448;-94
2022/01/09 00:47:23;;;;;;;;;;;7.40;99.90;8.10;98665.00;;;;345663;28;90536;-94
2022/01/09 00:47:35;;;;;;;;;;;7.40;99.90;8.10;98675.00;;;;347383;28;82343;-95
2022/01/09 00:47:47;;;;;;;;;;;7.40;99.90;8.10;98696.00;;;;345437;28;91937;-94
2022/01/09 00:47:59;;;;;;;;;;;7.40;99.90;8.10;98701.00;;;;349091;27;82548;-95
2022/01/09 00:48:12;;;;;;;;;;;7.40;99.90;8.10;98713.00;;;;348960;27;88202;-95
2022/01/09 00:48:24;;;;;;;;;;;7.40;99.90;8.10;98743.00;;;;347243;28;82465;-95
2022/01/09 00:48:36;;;;;;;;;;;7.40;99.90;8.10;98765.00;;;;345677;28;89922;-94
2022/01/09 00:48:49;;;;;;;;;;;7.50;99.90;8.20;98762.00;;;;346590;28;82787;-96
2022/01/09 00:49:02;;;;;;;;;;;7.50;99.90;8.40;98816.00;;;;347683;28;90148;-94
2022/01/09 00:49:14;;;;;;;;;;;7.60;99.90;8.20;98777.00;;;;346350;28;82525;-95
2022/01/09 00:49:27;;;;;;;;;;;7.60;99.90;8.00;98805.00;;;;347438;28;87418;-95
2022/01/09 00:49:38;;;;;;;;;;;7.60;99.90;7.80;98786.00;;;;346325;28;82460;-94
2022/01/09 00:49:50;;;;;;;;;;;7.50;99.90;7.60;98805.00;;;;346937;28;90100;-94
2022/01/09 00:50:03;;;;;;;;;;;7.40;99.90;7.40;98796.00;;;;347562;28;83427;-94
2022/01/09 00:50:15;;;;;;;;;;;7.30;99.90;7.30;98767.00;;;;346811;28;88083;-94
2022/01/09 00:50:27;;;;;;;;;;;7.30;99.90;7.10;98796.00;;;;347162;28;82532;-94
2022/01/09 00:50:40;;;;;;;;;;;7.10;99.90;7.10;98820.00;;;;346999;28;87966;-93
2022/01/09 00:50:51;;;;;;;;;;;7.10;99.90;6.90;98844.00;;;;347157;28;83285;-94
2022/01/09 00:51:03;;;;;;;;;;;6.90;99.90;6.50;98821.00;;;;345709;28;88930;-95
2022/01/09 00:51:15;;;;;;;;;;;6.70;99.90;6.60;98816.00;;;;347452;27;82562;-94
2022/01/09 00:51:27;;;;;;;;;;;6.70;99.90;6.50;98816.00;;;;347127;28;90457;-95
2022/01/09 00:51:39;;;;;;;;;;;6.60;99.90;6.60;98797.00;;;;347224;28;82435;-94
2022/01/09 00:51:51;;;;;;;;;;;6.50;99.90;6.30;98825.00;;;;347179;28;89006;-94
2022/01/09 00:52:03;;;;;;;;;;;6.40;99.90;6.10;98808.00;;;;347613;28;82488;-95
2022/01/09 00:52:15;;;;;;;;;;;6.20;99.90;6.10;98788.00;;;;345911;28;86576;-94
2022/01/09 00:52:27;;;;;;;;;;;6.20;99.90;6.20;98784.00;;;;347682;28;82550;-94
2022/01/09 00:52:39;;;;;;;;;;;6.10;99.90;6.20;98804.00;;;;346001;28;88491;-95
2022/01/09 00:52:51;;;;;;;;;;;6.10;99.90;6.10;98800.00;;;;346188;28;82386;-94
2022/01/09 00:53:03;;;;;;;;;;;6.00;99.90;6.20;98800.00;;;;347112;28;87780;-94
2022/01/09 00:53:15;;;;;;;;;;;6.00;99.90;6.10;98798.00;;;;345341;28;82589;-93
2022/01/09 00:53:27;;;;;;;;;;;5.90;99.90;6.10;98813.00;;;;347008;28;88507;-93
2022/01/09 00:53:39;;;;;;;;;;;5.90;99.90;6.20;98800.00;;;;348453;27;83293;-93
2022/01/09 00:53:51;;;;;;;;;;;5.80;99.90;6.20;98814.00;;;;346333;28;88086;-93
2022/01/09 00:54:03;;;;;;;;;;;5.90;99.90;6.20;98812.00;;;;346204;28;82573;-93
2022/01/09 00:54:14;;;;;;;;;;;5.80;99.90;6.10;98804.00;;;;347761;27;89739;-94
2022/01/09 00:54:26;;;;;;;;;;;5.80;99.90;6.10;98826.00;;;;348591;27;82529;-94
2022/01/09 00:54:38;;;;;;;;;;;5.80;99.90;6.10;98804.00;;;;341015;28;87194;-94
2022/01/09 00:54:51;;;;;;;;;;;5.80;99.90;6.10;98807.00;;;;340429;28;82530;-94
2022/01/09 00:55:04;;;;;;;;;;;5.80;99.90;6.10;98830.00;;;;339865;28;89064;-94
2022/01/09 00:55:15;;;;;;;;;;;5.70;99.90;6.10;98803.00;;;;339132;28;82388;-94
2022/01/09 00:55:27;;;;;;;;;;;5.70;99.90;6.00;98817.00;;;;337474;28;87160;-95
2022/01/09 00:55:39;;;;;;;;;;;5.70;99.90;6.10;98795.00;;;;337852;28;82234;-94
2022/01/09 00:55:51;;;;;;;;;;;5.60;99.90;6.00;98804.00;;;;337293;28;91069;-94
2022/01/09 00:56:03;;;;;;;;;;;5.70;99.90;6.00;98817.00;;;;339214;28;82504;-95
2022/01/09 00:56:15;;;;;;;;;;;5.60;99.90;5.90;98814.00;;;;341498;28;90382;-95
2022/01/09 00:56:27;;;;;;;;;;;5.60;99.90;5.90;98815.00;;;;345675;28;83402;-94
2022/01/09 00:56:39;;;;;;;;;;;5.50;99.90;6.00;98800.00;;;;342480;28;88467;-94
2022/01/09 00:56:50;;;;;;;;;;;5.50;99.90;5.90;98819.00;;;;341682;28;82456;-94
2022/01/09 00:57:03;;;;;;;;;;;5.50;99.90;5.90;98818.00;;;;339268;28;88138;-94
2022/01/09 00:57:15;;;;;;;;;;;5.50;99.90;5.90;98815.00;;;;339307;28;82336;-94
2022/01/09 00:57:28;;;;;;;;;;;5.50;99.90;5.90;98820.00;;;;341382;28;88328;-94
2022/01/09 00:57:40;;;;;;;;;;;5.50;99.90;5.90;98824.00;;;;339315;28;82514;-94
2022/01/09 00:57:52;;;;;;;;;;;5.40;99.90;5.90;98843.00;;;;339221;28;87531;-95
2022/01/09 00:58:04;;;;;;;;;;;5.40;99.90;5.90;98813.00;;;;339664;28;82316;-94
2022/01/09 00:58:16;;;;;;;;;;;5.40;99.90;5.90;98807.00;;;;338535;28;87405;-95
2022/01/09 00:58:28;;;;;;;;;;;5.40;99.90;5.90;98819.00;;;;341904;28;82548;-94
2022/01/09 00:58:39;;;;;;;;;;;5.40;99.90;5.90;98801.00;;;;340300;28;90104;-95
2022/01/09 00:58:51;;;;;;;;;;;5.40;99.90;5.80;98823.00;;;;338977;28;82577;-94
2022/01/09 00:59:04;;;;;;;;;;;5.40;99.90;5.80;98818.00;;;;341535;28;89433;-94
2022/01/09 00:59:15;;;;;;;;;;;5.40;99.90;5.80;98816.00;;;;341684;28;82543;-95
2022/01/09 00:59:27;;;;;;;;;;;5.40;99.90;5.90;98814.00;;;;340250;28;88012;-95
2022/01/09 00:59:39;;;;;;;;;;;5.40;99.90;5.90;98816.00;;;;343007;27;82221;-94
2022/01/09 00:59:51;;;;;;;;;;;5.40;99.90;5.90;98814.00;;;;345387;28;90822;-94
2022/01/09 01:00:04;;;;;;;;;;;5.40;99.90;5.90;98810.00;;;;343314;28;82389;-94
2022/01/09 01:00:16;;;;;;;;;;;5.40;99.90;5.90;98833.00;;;;342319;28;89033;-94
2022/01/09 01:00:28;;;;;;;;;;;5.40;99.90;5.90;98817.00;;;;343044;28;83304;-94
2022/01/09 01:00:40;;;;;;;;;;;5.40;99.90;5.90;98851.00;;;;340308;28;88030;-94
2022/01/09 01:00:53;;;;;;;;;;;5.30;99.90;5.90;98801.00;;;;339223;28;82562;-94
2022/01/09 01:01:05;;;;;;;;;;;5.40;99.90;5.90;98806.00;;;;340020;28;89178;-94
2022/01/09 01:01:16;;;;;;;;;;;5.40;99.90;5.80;98817.00;;;;339103;28;82410;-93
2022/01/09 01:01:28;;;;;;;;;;;5.30;99.90;5.80;98832.00;;;;341723;28;89935;-95
2022/01/09 01:01:40;;;;;;;;;;;5.30;99.90;5.80;98835.00;;;;343486;28;82439;-94
2022/01/09 01:01:54;;;;;;;;;;;5.30;99.90;5.80;98819.00;;;;341315;28;91502;-95